sensor_id;sensor_type;location;lat;lon;timestamp;P1;durP1;ratioP1;P2;durP2;ratioP2
76292;SDS011;67256;51.154;4.164;2024-03-06T00:00:57;12.35;;;9.35;;
76292;SDS011;67256;51.154;4.164;2024-03-06T00:03:23;12.70;;;9.73;;
76292;SDS011;67256;51.154;4.164;2024-03-06T00:05:48;15.05;;;9.57;;
76292;SDS011;67256;51.154;4.164;2024-03-06T00:08:14;14.02;;;9.68;;
76292;SDS011;67256;51.154;4.164;2024-03-06T00:10:40;10.98;;;8.90;;
76292;SDS011;67256;51.154;4.164;2024-03-06T00:13:06;11.20;;;9.63;;
76292;SDS011;67256;51.154;4.164;2024-03-06T00:15:32;11.80;;;9.05;;
76292;SDS011;67256;51.154;4.164;2024-03-06T00:17:59;13.25;;;9.45;;
76292;SDS011;67256;51.154;4.164;2024-03-06T00:20:25;11.07;;;9.38;;
76292;SDS011;67256;51.154;4.164;2024-03-06T00:22:51;12.45;;;8.95;;
76292;SDS011;67256;51.154;4.164;2024-03-06T00:25:16;9.60;;;8.48;;
76292;SDS011;67256;51.154;4.164;2024-03-06T00:27:42;11.52;;;8.38;;
76292;SDS011;67256;51.154;4.164;2024-03-06T00:30:08;11.45;;;9.23;;
76292;SDS011;67256;51.154;4.164;2024-03-06T00:32:34;12.73;;;8.70;;
76292;SDS011;67256;51.154;4.164;2024-03-06T00:35:00;11.48;;;9.32;;
76292;SDS011;67256;51.154;4.164;2024-03-06T00:37:25;11.88;;;8.13;;
76292;SDS011;67256;51.154;4.164;2024-03-06T00:39:51;11.73;;;7.40;;
76292;SDS011;67256;51.154;4.164;2024-03-06T00:42:17;11.25;;;8.57;;
76292;SDS011;67256;51.154;4.164;2024-03-06T00:44:43;9.77;;;7.68;;
76292;SDS011;67256;51.154;4.164;2024-03-06T00:47:08;10.07;;;8.30;;
76292;SDS011;67256;51.154;4.164;2024-03-06T00:49:34;11.73;;;8.15;;
76292;SDS011;67256;51.154;4.164;2024-03-06T00:52:00;9.13;;;8.13;;
76292;SDS011;67256;51.154;4.164;2024-03-06T00:54:25;10.43;;;8.38;;
76292;SDS011;67256;51.154;4.164;2024-03-06T00:56:51;11.77;;;8.68;;
76292;SDS011;67256;51.154;4.164;2024-03-06T00:59:17;13.27;;;8.50;;
76292;SDS011;67256;51.154;4.164;2024-03-06T01:01:43;9.95;;;8.07;;
76292;SDS011;67256;51.154;4.164;2024-03-06T01:04:09;10.05;;;8.00;;
76292;SDS011;67256;51.154;4.164;2024-03-06T01:06:34;12.40;;;7.72;;
76292;SDS011;67256;51.154;4.164;2024-03-06T01:09:00;13.68;;;8.55;;
76292;SDS011;67256;51.154;4.164;2024-03-06T01:11:26;11.02;;;7.90;;
76292;SDS011;67256;51.154;4.164;2024-03-06T01:13:52;9.93;;;8.18;;
76292;SDS011;67256;51.154;4.164;2024-03-06T01:16:18;10.63;;;8.10;;
76292;SDS011;67256;51.154;4.164;2024-03-06T01:18:44;9.18;;;7.82;;
76292;SDS011;67256;51.154;4.164;2024-03-06T01:21:10;9.48;;;8.35;;
76292;SDS011;67256;51.154;4.164;2024-03-06T01:23:35;10.18;;;7.50;;
76292;SDS011;67256;51.154;4.164;2024-03-06T01:26:01;10.23;;;8.07;;
76292;SDS011;67256;51.154;4.164;2024-03-06T01:28:27;9.38;;;7.70;;
76292;SDS011;67256;51.154;4.164;2024-03-06T01:30:52;9.80;;;7.93;;
76292;SDS011;67256;51.154;4.164;2024-03-06T01:33:18;11.45;;;8.23;;
76292;SDS011;67256;51.154;4.164;2024-03-06T01:35:44;8.77;;;6.97;;
76292;SDS011;67256;51.154;4.164;2024-03-06T01:38:10;12.18;;;7.63;;
76292;SDS011;67256;51.154;4.164;2024-03-06T01:40:36;10.50;;;7.43;;
76292;SDS011;67256;51.154;4.164;2024-03-06T01:43:02;10.73;;;7.28;;
76292;SDS011;67256;51.154;4.164;2024-03-06T01:45:28;9.43;;;7.53;;
76292;SDS011;67256;51.154;4.164;2024-03-06T01:47:53;11.18;;;8.60;;
76292;SDS011;67256;51.154;4.164;2024-03-06T01:50:20;9.07;;;7.95;;
76292;SDS011;67256;51.154;4.164;2024-03-06T01:52:46;8.18;;;7.25;;
76292;SDS011;67256;51.154;4.164;2024-03-06T01:55:12;11.80;;;7.72;;
76292;SDS011;67256;51.154;4.164;2024-03-06T01:57:38;13.20;;;8.43;;
76292;SDS011;67256;51.154;4.164;2024-03-06T02:00:06;9.32;;;7.55;;
76292;SDS011;67256;51.154;4.164;2024-03-06T02:02:38;9.70;;;7.53;;
76292;SDS011;67256;51.154;4.164;2024-03-06T02:05:05;9.93;;;7.53;;
76292;SDS011;67256;51.154;4.164;2024-03-06T02:07:31;10.75;;;7.70;;
76292;SDS011;67256;51.154;4.164;2024-03-06T02:09:58;10.43;;;7.28;;
76292;SDS011;67256;51.154;4.164;2024-03-06T02:12:24;9.15;;;7.78;;
76292;SDS011;67256;51.154;4.164;2024-03-06T02:14:50;8.88;;;7.90;;
76292;SDS011;67256;51.154;4.164;2024-03-06T02:17:16;10.18;;;7.63;;
76292;SDS011;67256;51.154;4.164;2024-03-06T02:19:42;10.75;;;7.30;;
76292;SDS011;67256;51.154;4.164;2024-03-06T02:22:09;10.45;;;7.55;;
76292;SDS011;67256;51.154;4.164;2024-03-06T02:24:36;10.90;;;7.57;;
76292;SDS011;67256;51.154;4.164;2024-03-06T02:27:05;8.35;;;7.40;;
76292;SDS011;67256;51.154;4.164;2024-03-06T02:29:31;10.10;;;7.88;;
76292;SDS011;67256;51.154;4.164;2024-03-06T02:31:58;9.63;;;8.57;;
76292;SDS011;67256;51.154;4.164;2024-03-06T02:34:23;9.57;;;8.57;;
76292;SDS011;67256;51.154;4.164;2024-03-06T02:36:50;8.95;;;8.02;;
76292;SDS011;67256;51.154;4.164;2024-03-06T02:39:17;8.27;;;7.43;;
76292;SDS011;67256;51.154;4.164;2024-03-06T02:41:42;11.77;;;7.38;;
76292;SDS011;67256;51.154;4.164;2024-03-06T02:44:08;9.05;;;7.38;;
76292;SDS011;67256;51.154;4.164;2024-03-06T02:46:34;9.85;;;7.50;;
76292;SDS011;67256;51.154;4.164;2024-03-06T02:49:00;8.75;;;7.80;;
76292;SDS011;67256;51.154;4.164;2024-03-06T02:51:25;9.38;;;7.28;;
76292;SDS011;67256;51.154;4.164;2024-03-06T02:53:51;11.00;;;7.93;;
76292;SDS011;67256;51.154;4.164;2024-03-06T02:56:18;8.63;;;7.65;;
76292;SDS011;67256;51.154;4.164;2024-03-06T02:58:45;11.98;;;7.93;;
76292;SDS011;67256;51.154;4.164;2024-03-06T03:01:10;10.75;;;7.43;;
76292;SDS011;67256;51.154;4.164;2024-03-06T03:03:39;8.95;;;8.02;;
76292;SDS011;67256;51.154;4.164;2024-03-06T03:06:06;8.90;;;7.75;;
76292;SDS011;67256;51.154;4.164;2024-03-06T03:08:32;9.43;;;8.07;;
76292;SDS011;67256;51.154;4.164;2024-03-06T03:10:58;10.93;;;8.27;;
76292;SDS011;67256;51.154;4.164;2024-03-06T03:13:23;10.20;;;7.75;;
76292;SDS011;67256;51.154;4.164;2024-03-06T03:15:49;11.70;;;8.65;;
76292;SDS011;67256;51.154;4.164;2024-03-06T03:18:16;9.60;;;7.75;;
76292;SDS011;67256;51.154;4.164;2024-03-06T03:20:41;10.90;;;7.93;;
76292;SDS011;67256;51.154;4.164;2024-03-06T03:23:07;13.38;;;8.70;;
76292;SDS011;67256;51.154;4.164;2024-03-06T03:25:37;9.82;;;8.05;;
76292;SDS011;67256;51.154;4.164;2024-03-06T03:28:03;11.27;;;7.88;;
76292;SDS011;67256;51.154;4.164;2024-03-06T03:30:29;11.95;;;8.25;;
76292;SDS011;67256;51.154;4.164;2024-03-06T03:32:54;11.15;;;8.40;;
76292;SDS011;67256;51.154;4.164;2024-03-06T03:35:20;11.18;;;7.85;;
76292;SDS011;67256;51.154;4.164;2024-03-06T03:40:16;10.30;;;7.07;;
76292;SDS011;67256;51.154;4.164;2024-03-06T03:42:43;10.90;;;8.10;;
76292;SDS011;67256;51.154;4.164;2024-03-06T03:45:09;9.38;;;7.85;;
76292;SDS011;67256;51.154;4.164;2024-03-06T03:47:35;10.27;;;8.45;;
76292;SDS011;67256;51.154;4.164;2024-03-06T03:50:01;11.27;;;8.35;;
76292;SDS011;67256;51.154;4.164;2024-03-06T03:52:26;9.65;;;8.48;;
76292;SDS011;67256;51.154;4.164;2024-03-06T03:54:52;10.93;;;7.78;;
76292;SDS011;67256;51.154;4.164;2024-03-06T03:57:18;8.65;;;7.75;;
76292;SDS011;67256;51.154;4.164;2024-03-06T03:59:43;11.77;;;7.55;;
76292;SDS011;67256;51.154;4.164;2024-03-06T04:02:09;10.40;;;7.93;;
76292;SDS011;67256;51.154;4.164;2024-03-06T04:04:35;9.52;;;8.52;;
76292;SDS011;67256;51.154;4.164;2024-03-06T04:07:00;10.93;;;7.72;;
76292;SDS011;67256;51.154;4.164;2024-03-06T04:09:30;9.80;;;7.35;;
76292;SDS011;67256;51.154;4.164;2024-03-06T04:11:57;13.80;;;8.65;;
76292;SDS011;67256;51.154;4.164;2024-03-06T04:14:23;17.33;;;8.63;;
76292;SDS011;67256;51.154;4.164;2024-03-06T04:16:51;10.70;;;8.55;;
76292;SDS011;67256;51.154;4.164;2024-03-06T04:19:17;9.45;;;8.20;;
76292;SDS011;67256;51.154;4.164;2024-03-06T04:21:43;12.18;;;9.50;;
76292;SDS011;67256;51.154;4.164;2024-03-06T04:24:09;12.80;;;8.63;;
76292;SDS011;67256;51.154;4.164;2024-03-06T04:26:35;11.93;;;8.63;;
76292;SDS011;67256;51.154;4.164;2024-03-06T04:29:01;9.73;;;7.95;;
76292;SDS011;67256;51.154;4.164;2024-03-06T04:31:28;11.70;;;8.93;;
76292;SDS011;67256;51.154;4.164;2024-03-06T04:33:53;10.93;;;8.18;;
76292;SDS011;67256;51.154;4.164;2024-03-06T04:36:19;10.43;;;8.07;;
76292;SDS011;67256;51.154;4.164;2024-03-06T04:38:45;16.08;;;9.35;;
76292;SDS011;67256;51.154;4.164;2024-03-06T04:41:11;12.32;;;8.50;;
76292;SDS011;67256;51.154;4.164;2024-03-06T04:43:36;9.98;;;8.05;;
76292;SDS011;67256;51.154;4.164;2024-03-06T04:46:03;13.30;;;9.05;;
76292;SDS011;67256;51.154;4.164;2024-03-06T04:48:29;12.48;;;8.75;;
76292;SDS011;67256;51.154;4.164;2024-03-06T04:50:55;12.02;;;8.63;;
76292;SDS011;67256;51.154;4.164;2024-03-06T04:53:20;11.95;;;8.75;;
76292;SDS011;67256;51.154;4.164;2024-03-06T04:55:46;9.90;;;7.78;;
76292;SDS011;67256;51.154;4.164;2024-03-06T04:58:12;12.70;;;8.38;;
76292;SDS011;67256;51.154;4.164;2024-03-06T05:00:38;9.05;;;7.57;;
76292;SDS011;67256;51.154;4.164;2024-03-06T05:03:04;14.63;;;8.25;;
76292;SDS011;67256;51.154;4.164;2024-03-06T05:05:30;10.38;;;7.72;;
76292;SDS011;67256;51.154;4.164;2024-03-06T05:07:56;10.60;;;8.73;;
76292;SDS011;67256;51.154;4.164;2024-03-06T05:10:22;8.43;;;6.88;;
76292;SDS011;67256;51.154;4.164;2024-03-06T05:12:48;9.82;;;8.07;;
76292;SDS011;67256;51.154;4.164;2024-03-06T05:15:13;11.38;;;9.02;;
76292;SDS011;67256;51.154;4.164;2024-03-06T05:17:39;11.05;;;8.23;;
76292;SDS011;67256;51.154;4.164;2024-03-06T05:20:05;11.68;;;8.20;;
76292;SDS011;67256;51.154;4.164;2024-03-06T05:22:31;12.75;;;8.27;;
76292;SDS011;67256;51.154;4.164;2024-03-06T05:24:57;13.43;;;10.13;;
76292;SDS011;67256;51.154;4.164;2024-03-06T05:27:23;13.73;;;9.18;;
76292;SDS011;67256;51.154;4.164;2024-03-06T05:29:51;16.27;;;10.25;;
76292;SDS011;67256;51.154;4.164;2024-03-06T05:32:17;15.90;;;11.65;;
76292;SDS011;67256;51.154;4.164;2024-03-06T05:34:43;11.10;;;9.55;;
76292;SDS011;67256;51.154;4.164;2024-03-06T05:37:10;13.70;;;8.98;;
76292;SDS011;67256;51.154;4.164;2024-03-06T05:39:36;14.30;;;9.32;;
76292;SDS011;67256;51.154;4.164;2024-03-06T05:42:05;11.15;;;8.27;;
76292;SDS011;67256;51.154;4.164;2024-03-06T05:44:31;12.80;;;8.82;;
76292;SDS011;67256;51.154;4.164;2024-03-06T05:46:58;14.88;;;8.60;;
76292;SDS011;67256;51.154;4.164;2024-03-06T05:49:25;12.48;;;9.05;;
76292;SDS011;67256;51.154;4.164;2024-03-06T05:51:51;15.32;;;9.00;;
76292;SDS011;67256;51.154;4.164;2024-03-06T05:54:17;11.77;;;9.25;;
76292;SDS011;67256;51.154;4.164;2024-03-06T05:56:44;14.95;;;9.07;;
76292;SDS011;67256;51.154;4.164;2024-03-06T05:59:10;10.90;;;8.50;;
76292;SDS011;67256;51.154;4.164;2024-03-06T06:01:36;10.45;;;8.93;;
76292;SDS011;67256;51.154;4.164;2024-03-06T06:04:02;13.10;;;9.27;;
76292;SDS011;67256;51.154;4.164;2024-03-06T06:06:27;12.90;;;8.77;;
76292;SDS011;67256;51.154;4.164;2024-03-06T06:08:53;13.48;;;9.82;;
76292;SDS011;67256;51.154;4.164;2024-03-06T06:11:19;12.95;;;10.10;;
76292;SDS011;67256;51.154;4.164;2024-03-06T06:13:45;19.17;;;11.65;;
76292;SDS011;67256;51.154;4.164;2024-03-06T06:16:11;12.40;;;9.25;;
76292;SDS011;67256;51.154;4.164;2024-03-06T06:18:37;12.52;;;9.70;;
76292;SDS011;67256;51.154;4.164;2024-03-06T06:21:07;10.57;;;9.02;;
76292;SDS011;67256;51.154;4.164;2024-03-06T06:23:33;13.02;;;9.32;;
76292;SDS011;67256;51.154;4.164;2024-03-06T06:25:59;12.45;;;8.65;;
76292;SDS011;67256;51.154;4.164;2024-03-06T06:28:25;15.68;;;11.68;;
76292;SDS011;67256;51.154;4.164;2024-03-06T06:30:51;17.45;;;11.45;;
76292;SDS011;67256;51.154;4.164;2024-03-06T06:33:19;13.80;;;10.73;;
76292;SDS011;67256;51.154;4.164;2024-03-06T06:35:46;16.00;;;11.18;;
76292;SDS011;67256;51.154;4.164;2024-03-06T06:38:12;23.50;;;12.57;;
76292;SDS011;67256;51.154;4.164;2024-03-06T06:40:37;15.52;;;11.30;;
76292;SDS011;67256;51.154;4.164;2024-03-06T06:43:03;16.10;;;12.15;;
76292;SDS011;67256;51.154;4.164;2024-03-06T06:45:29;16.27;;;11.85;;
76292;SDS011;67256;51.154;4.164;2024-03-06T06:47:54;16.27;;;11.88;;
76292;SDS011;67256;51.154;4.164;2024-03-06T06:50:20;16.98;;;13.90;;
76292;SDS011;67256;51.154;4.164;2024-03-06T06:52:51;18.00;;;13.55;;
76292;SDS011;67256;51.154;4.164;2024-03-06T06:55:17;17.45;;;14.55;;
76292;SDS011;67256;51.154;4.164;2024-03-06T06:57:43;18.55;;;13.05;;
76292;SDS011;67256;51.154;4.164;2024-03-06T07:00:09;19.10;;;13.75;;
76292;SDS011;67256;51.154;4.164;2024-03-06T07:02:38;16.17;;;13.15;;
76292;SDS011;67256;51.154;4.164;2024-03-06T07:05:05;17.25;;;13.32;;
76292;SDS011;67256;51.154;4.164;2024-03-06T07:07:33;15.20;;;12.55;;
76292;SDS011;67256;51.154;4.164;2024-03-06T07:09:59;16.40;;;13.68;;
76292;SDS011;67256;51.154;4.164;2024-03-06T07:12:26;15.88;;;13.02;;
76292;SDS011;67256;51.154;4.164;2024-03-06T07:14:51;17.27;;;13.43;;
76292;SDS011;67256;51.154;4.164;2024-03-06T07:17:17;15.85;;;12.30;;
76292;SDS011;67256;51.154;4.164;2024-03-06T07:19:43;22.83;;;13.05;;
76292;SDS011;67256;51.154;4.164;2024-03-06T07:22:08;18.23;;;13.25;;
76292;SDS011;67256;51.154;4.164;2024-03-06T07:24:34;18.63;;;12.68;;
76292;SDS011;67256;51.154;4.164;2024-03-06T07:27:00;20.65;;;16.33;;
76292;SDS011;67256;51.154;4.164;2024-03-06T07:29:28;21.17;;;16.98;;
76292;SDS011;67256;51.154;4.164;2024-03-06T07:31:54;18.88;;;15.02;;
76292;SDS011;67256;51.154;4.164;2024-03-06T07:34:20;23.35;;;15.38;;
76292;SDS011;67256;51.154;4.164;2024-03-06T07:36:49;18.25;;;16.17;;
76292;SDS011;67256;51.154;4.164;2024-03-06T07:39:15;20.35;;;14.82;;
76292;SDS011;67256;51.154;4.164;2024-03-06T07:41:41;17.58;;;14.57;;
76292;SDS011;67256;51.154;4.164;2024-03-06T07:44:07;17.00;;;14.07;;
76292;SDS011;67256;51.154;4.164;2024-03-06T07:46:33;23.00;;;15.65;;
76292;SDS011;67256;51.154;4.164;2024-03-06T07:49:00;21.40;;;15.15;;
76292;SDS011;67256;51.154;4.164;2024-03-06T07:51:28;17.55;;;14.02;;
76292;SDS011;67256;51.154;4.164;2024-03-06T07:53:55;17.45;;;13.05;;
76292;SDS011;67256;51.154;4.164;2024-03-06T07:56:21;15.50;;;12.60;;
76292;SDS011;67256;51.154;4.164;2024-03-06T07:58:46;16.10;;;12.23;;
76292;SDS011;67256;51.154;4.164;2024-03-06T08:01:12;16.27;;;12.98;;
76292;SDS011;67256;51.154;4.164;2024-03-06T08:03:38;19.73;;;11.75;;
76292;SDS011;67256;51.154;4.164;2024-03-06T08:06:08;17.73;;;10.98;;
76292;SDS011;67256;51.154;4.164;2024-03-06T08:08:34;14.98;;;11.38;;
76292;SDS011;67256;51.154;4.164;2024-03-06T08:11:00;14.73;;;10.85;;
76292;SDS011;67256;51.154;4.164;2024-03-06T08:13:26;14.88;;;11.75;;
76292;SDS011;67256;51.154;4.164;2024-03-06T08:15:52;14.02;;;10.85;;
76292;SDS011;67256;51.154;4.164;2024-03-06T08:18:18;14.15;;;11.02;;
76292;SDS011;67256;51.154;4.164;2024-03-06T08:20:44;14.20;;;10.95;;
76292;SDS011;67256;51.154;4.164;2024-03-06T08:23:10;13.13;;;10.43;;
76292;SDS011;67256;51.154;4.164;2024-03-06T08:25:36;14.80;;;10.60;;
76292;SDS011;67256;51.154;4.164;2024-03-06T08:28:01;13.18;;;10.32;;
76292;SDS011;67256;51.154;4.164;2024-03-06T08:30:35;13.70;;;10.18;;
76292;SDS011;67256;51.154;4.164;2024-03-06T08:33:00;15.95;;;10.82;;
76292;SDS011;67256;51.154;4.164;2024-03-06T08:35:26;16.88;;;11.35;;
76292;SDS011;67256;51.154;4.164;2024-03-06T08:37:52;16.85;;;10.27;;
76292;SDS011;67256;51.154;4.164;2024-03-06T08:40:18;17.42;;;10.85;;
76292;SDS011;67256;51.154;4.164;2024-03-06T08:42:44;15.43;;;11.30;;
76292;SDS011;67256;51.154;4.164;2024-03-06T08:45:12;13.95;;;10.60;;
76292;SDS011;67256;51.154;4.164;2024-03-06T08:47:39;14.90;;;10.98;;
76292;SDS011;67256;51.154;4.164;2024-03-06T08:50:05;17.38;;;11.65;;
76292;SDS011;67256;51.154;4.164;2024-03-06T08:52:32;15.52;;;11.80;;
76292;SDS011;67256;51.154;4.164;2024-03-06T08:54:59;15.88;;;11.20;;
76292;SDS011;67256;51.154;4.164;2024-03-06T08:57:26;13.70;;;11.15;;
76292;SDS011;67256;51.154;4.164;2024-03-06T08:59:53;13.35;;;10.57;;
76292;SDS011;67256;51.154;4.164;2024-03-06T09:02:19;15.85;;;11.52;;
76292;SDS011;67256;51.154;4.164;2024-03-06T09:04:46;16.33;;;11.75;;
76292;SDS011;67256;51.154;4.164;2024-03-06T09:07:12;16.90;;;11.15;;
76292;SDS011;67256;51.154;4.164;2024-03-06T09:09:39;18.30;;;11.73;;
76292;SDS011;67256;51.154;4.164;2024-03-06T09:12:06;17.48;;;13.15;;
76292;SDS011;67256;51.154;4.164;2024-03-06T09:14:35;16.33;;;11.40;;
76292;SDS011;67256;51.154;4.164;2024-03-06T09:17:04;19.63;;;12.03;;
76292;SDS011;67256;51.154;4.164;2024-03-06T09:19:31;19.85;;;11.95;;
76292;SDS011;67256;51.154;4.164;2024-03-06T09:21:58;20.17;;;12.15;;
76292;SDS011;67256;51.154;4.164;2024-03-06T09:24:24;19.33;;;12.02;;
76292;SDS011;67256;51.154;4.164;2024-03-06T09:26:50;14.43;;;11.32;;
76292;SDS011;67256;51.154;4.164;2024-03-06T09:29:16;15.18;;;11.80;;
76292;SDS011;67256;51.154;4.164;2024-03-06T09:31:42;16.85;;;11.20;;
76292;SDS011;67256;51.154;4.164;2024-03-06T09:34:08;18.20;;;12.35;;
76292;SDS011;67256;51.154;4.164;2024-03-06T09:36:41;14.88;;;11.02;;
76292;SDS011;67256;51.154;4.164;2024-03-06T09:39:11;14.25;;;11.60;;
76292;SDS011;67256;51.154;4.164;2024-03-06T09:41:37;15.95;;;12.18;;
76292;SDS011;67256;51.154;4.164;2024-03-06T09:44:06;14.98;;;11.00;;
76292;SDS011;67256;51.154;4.164;2024-03-06T09:46:32;14.55;;;11.40;;
76292;SDS011;67256;51.154;4.164;2024-03-06T09:48:59;14.45;;;11.25;;
76292;SDS011;67256;51.154;4.164;2024-03-06T09:51:26;13.90;;;11.10;;
76292;SDS011;67256;51.154;4.164;2024-03-06T09:53:52;15.20;;;10.40;;
76292;SDS011;67256;51.154;4.164;2024-03-06T09:56:19;15.55;;;10.38;;
76292;SDS011;67256;51.154;4.164;2024-03-06T09:58:45;12.05;;;9.63;;
76292;SDS011;67256;51.154;4.164;2024-03-06T10:01:12;16.92;;;9.60;;
76292;SDS011;67256;51.154;4.164;2024-03-06T10:03:39;13.20;;;9.95;;
76292;SDS011;67256;51.154;4.164;2024-03-06T10:06:06;15.45;;;10.13;;
76292;SDS011;67256;51.154;4.164;2024-03-06T10:08:32;12.82;;;8.90;;
76292;SDS011;67256;51.154;4.164;2024-03-06T10:10:58;13.88;;;9.13;;
76292;SDS011;67256;51.154;4.164;2024-03-06T10:13:24;15.90;;;8.95;;
76292;SDS011;67256;51.154;4.164;2024-03-06T10:18:30;12.67;;;7.37;;
76292;SDS011;67256;51.154;4.164;2024-03-06T10:20:57;11.80;;;7.97;;
76292;SDS011;67256;51.154;4.164;2024-03-06T10:23:23;11.30;;;7.03;;
76292;SDS011;67256;51.154;4.164;2024-03-06T10:25:50;13.93;;;8.40;;
76292;SDS011;67256;51.154;4.164;2024-03-06T10:28:17;10.82;;;7.70;;
76292;SDS011;67256;51.154;4.164;2024-03-06T10:30:44;13.15;;;8.10;;
76292;SDS011;67256;51.154;4.164;2024-03-06T10:33:13;12.35;;;7.22;;
76292;SDS011;67256;51.154;4.164;2024-03-06T10:35:40;9.52;;;6.80;;
76292;SDS011;67256;51.154;4.164;2024-03-06T10:38:07;8.10;;;6.80;;
76292;SDS011;67256;51.154;4.164;2024-03-06T10:40:34;8.05;;;6.20;;
76292;SDS011;67256;51.154;4.164;2024-03-06T10:43:02;8.07;;;5.78;;
76292;SDS011;67256;51.154;4.164;2024-03-06T10:48:15;10.32;;;6.93;;
76292;SDS011;67256;51.154;4.164;2024-03-06T10:50:43;8.63;;;6.53;;
76292;SDS011;67256;51.154;4.164;2024-03-06T10:53:11;9.13;;;6.40;;
76292;SDS011;67256;51.154;4.164;2024-03-06T10:55:38;11.43;;;6.40;;
76292;SDS011;67256;51.154;4.164;2024-03-06T10:58:06;9.88;;;6.65;;
76292;SDS011;67256;51.154;4.164;2024-03-06T11:00:44;8.60;;;6.45;;
76292;SDS011;67256;51.154;4.164;2024-03-06T11:03:14;9.20;;;6.57;;
76292;SDS011;67256;51.154;4.164;2024-03-06T11:05:41;10.68;;;6.50;;
76292;SDS011;67256;51.154;4.164;2024-03-06T11:08:09;6.50;;;5.05;;
76292;SDS011;67256;51.154;4.164;2024-03-06T11:10:37;8.07;;;6.07;;
76292;SDS011;67256;51.154;4.164;2024-03-06T11:15:45;10.25;;;6.60;;
76292;SDS011;67256;51.154;4.164;2024-03-06T11:23:27;12.07;;;8.10;;
76292;SDS011;67256;51.154;4.164;2024-03-06T11:28:22;7.15;;;5.05;;
76292;SDS011;67256;51.154;4.164;2024-03-06T11:31:01;8.93;;;5.35;;
76292;SDS011;67256;51.154;4.164;2024-03-06T11:33:40;6.15;;;4.53;;
76292;SDS011;67256;51.154;4.164;2024-03-06T11:41:18;6.90;;;4.65;;
76292;SDS011;67256;51.154;4.164;2024-03-06T11:43:44;5.40;;;4.32;;
76292;SDS011;67256;51.154;4.164;2024-03-06T11:46:11;9.23;;;4.68;;
76292;SDS011;67256;51.154;4.164;2024-03-06T11:48:37;5.25;;;3.35;;
76292;SDS011;67256;51.154;4.164;2024-03-06T11:51:04;7.35;;;3.25;;
76292;SDS011;67256;51.154;4.164;2024-03-06T11:53:30;6.25;;;4.38;;
76292;SDS011;67256;51.154;4.164;2024-03-06T11:55:58;6.22;;;4.50;;
76292;SDS011;67256;51.154;4.164;2024-03-06T11:58:24;7.72;;;4.50;;
76292;SDS011;67256;51.154;4.164;2024-03-06T12:00:50;7.32;;;4.82;;
76292;SDS011;67256;51.154;4.164;2024-03-06T12:03:17;6.22;;;4.38;;
76292;SDS011;67256;51.154;4.164;2024-03-06T12:05:44;8.45;;;4.97;;
76292;SDS011;67256;51.154;4.164;2024-03-06T12:08:10;6.93;;;4.30;;
76292;SDS011;67256;51.154;4.164;2024-03-06T12:10:37;5.22;;;3.67;;
76292;SDS011;67256;51.154;4.164;2024-03-06T12:13:03;5.88;;;3.80;;
76292;SDS011;67256;51.154;4.164;2024-03-06T12:15:29;4.82;;;3.60;;
76292;SDS011;67256;51.154;4.164;2024-03-06T12:17:55;3.83;;;2.63;;
76292;SDS011;67256;51.154;4.164;2024-03-06T12:20:21;3.05;;;2.47;;
76292;SDS011;67256;51.154;4.164;2024-03-06T12:22:53;4.15;;;3.28;;
76292;SDS011;67256;51.154;4.164;2024-03-06T12:25:21;4.60;;;3.13;;
76292;SDS011;67256;51.154;4.164;2024-03-06T12:27:49;3.97;;;2.78;;
76292;SDS011;67256;51.154;4.164;2024-03-06T12:30:19;3.92;;;2.72;;
76292;SDS011;67256;51.154;4.164;2024-03-06T12:33:00;3.20;;;2.75;;
76292;SDS011;67256;51.154;4.164;2024-03-06T12:35:29;5.13;;;2.80;;
76292;SDS011;67256;51.154;4.164;2024-03-06T12:37:56;3.78;;;2.95;;
76292;SDS011;67256;51.154;4.164;2024-03-06T12:40:22;4.03;;;3.05;;
76292;SDS011;67256;51.154;4.164;2024-03-06T12:42:48;4.88;;;3.05;;
76292;SDS011;67256;51.154;4.164;2024-03-06T12:45:20;5.43;;;3.05;;
76292;SDS011;67256;51.154;4.164;2024-03-06T12:47:46;4.47;;;3.30;;
76292;SDS011;67256;51.154;4.164;2024-03-06T12:50:15;4.45;;;2.95;;
76292;SDS011;67256;51.154;4.164;2024-03-06T12:52:41;7.78;;;3.60;;
76292;SDS011;67256;51.154;4.164;2024-03-06T12:57:36;6.68;;;3.05;;
76292;SDS011;67256;51.154;4.164;2024-03-06T13:00:02;5.13;;;3.30;;
76292;SDS011;67256;51.154;4.164;2024-03-06T13:02:31;5.25;;;3.15;;
76292;SDS011;67256;51.154;4.164;2024-03-06T13:04:57;5.60;;;3.13;;
76292;SDS011;67256;51.154;4.164;2024-03-06T13:07:23;5.10;;;3.72;;
76292;SDS011;67256;51.154;4.164;2024-03-06T13:09:52;5.65;;;3.42;;
76292;SDS011;67256;51.154;4.164;2024-03-06T13:12:17;5.03;;;2.83;;
76292;SDS011;67256;51.154;4.164;2024-03-06T13:14:43;6.63;;;3.20;;
76292;SDS011;67256;51.154;4.164;2024-03-06T13:17:09;5.32;;;3.90;;
76292;SDS011;67256;51.154;4.164;2024-03-06T13:19:34;4.05;;;2.65;;
76292;SDS011;67256;51.154;4.164;2024-03-06T13:22:00;5.25;;;3.40;;
76292;SDS011;67256;51.154;4.164;2024-03-06T13:24:26;4.05;;;2.97;;
76292;SDS011;67256;51.154;4.164;2024-03-06T13:26:51;4.00;;;2.85;;
76292;SDS011;67256;51.154;4.164;2024-03-06T13:29:17;4.75;;;2.78;;
76292;SDS011;67256;51.154;4.164;2024-03-06T13:31:42;3.72;;;2.25;;
76292;SDS011;67256;51.154;4.164;2024-03-06T13:34:08;5.38;;;3.80;;
76292;SDS011;67256;51.154;4.164;2024-03-06T13:36:34;6.05;;;4.15;;
76292;SDS011;67256;51.154;4.164;2024-03-06T13:39:00;8.13;;;6.82;;
76292;SDS011;67256;51.154;4.164;2024-03-06T13:41:25;11.02;;;6.00;;
76292;SDS011;67256;51.154;4.164;2024-03-06T13:43:51;9.55;;;7.40;;
76292;SDS011;67256;51.154;4.164;2024-03-06T13:46:17;12.20;;;7.35;;
76292;SDS011;67256;51.154;4.164;2024-03-06T13:48:43;9.50;;;6.70;;
76292;SDS011;67256;51.154;4.164;2024-03-06T13:51:09;7.88;;;5.72;;
76292;SDS011;67256;51.154;4.164;2024-03-06T13:53:34;9.20;;;4.78;;
76292;SDS011;67256;51.154;4.164;2024-03-06T13:56:00;8.35;;;5.03;;
76292;SDS011;67256;51.154;4.164;2024-03-06T13:58:26;9.93;;;5.10;;
76292;SDS011;67256;51.154;4.164;2024-03-06T14:00:51;9.75;;;5.10;;
76292;SDS011;67256;51.154;4.164;2024-03-06T14:03:17;7.88;;;5.53;;
76292;SDS011;67256;51.154;4.164;2024-03-06T14:05:43;8.13;;;5.78;;
76292;SDS011;67256;51.154;4.164;2024-03-06T14:08:08;6.35;;;4.80;;
76292;SDS011;67256;51.154;4.164;2024-03-06T14:10:37;8.05;;;5.82;;
76292;SDS011;67256;51.154;4.164;2024-03-06T14:13:05;5.95;;;4.85;;
76292;SDS011;67256;51.154;4.164;2024-03-06T14:15:32;8.82;;;4.47;;
76292;SDS011;67256;51.154;4.164;2024-03-06T14:17:58;12.40;;;4.80;;
76292;SDS011;67256;51.154;4.164;2024-03-06T14:20:26;6.70;;;4.30;;
76292;SDS011;67256;51.154;4.164;2024-03-06T14:22:52;10.38;;;5.05;;
76292;SDS011;67256;51.154;4.164;2024-03-06T14:25:18;9.40;;;4.30;;
76292;SDS011;67256;51.154;4.164;2024-03-06T14:27:44;5.78;;;4.22;;
76292;SDS011;67256;51.154;4.164;2024-03-06T14:30:12;6.70;;;3.78;;
76292;SDS011;67256;51.154;4.164;2024-03-06T14:32:38;5.88;;;4.10;;
76292;SDS011;67256;51.154;4.164;2024-03-06T14:35:04;5.93;;;4.30;;
76292;SDS011;67256;51.154;4.164;2024-03-06T14:37:30;17.88;;;4.65;;
76292;SDS011;67256;51.154;4.164;2024-03-06T14:39:56;10.43;;;5.10;;
76292;SDS011;67256;51.154;4.164;2024-03-06T14:42:21;6.50;;;4.40;;
76292;SDS011;67256;51.154;4.164;2024-03-06T14:44:48;9.10;;;4.55;;
76292;SDS011;67256;51.154;4.164;2024-03-06T14:47:14;5.38;;;3.90;;
76292;SDS011;67256;51.154;4.164;2024-03-06T14:49:41;5.13;;;4.07;;
76292;SDS011;67256;51.154;4.164;2024-03-06T14:52:09;6.43;;;4.05;;
76292;SDS011;67256;51.154;4.164;2024-03-06T14:54:34;9.90;;;4.78;;
76292;SDS011;67256;51.154;4.164;2024-03-06T14:57:01;6.70;;;4.60;;